createdAt,value
2022-10-26T00:02:03.421Z,5.09
2022-10-26T00:07:05.091Z,5.08
2022-10-26T00:12:06.852Z,5.10
2022-10-26T00:17:08.505Z,4.97
2022-10-26T00:22:10.079Z,4.92
2022-10-26T00:27:11.679Z,4.90
2022-10-26T00:32:13.277Z,4.89
2022-10-26T00:37:14.823Z,4.89
2022-10-26T00:42:19.509Z,4.89
2022-10-26T00:47:41.979Z,4.89
2022-10-26T00:52:43.708Z,4.75
2022-10-26T00:57:45.296Z,4.76
2022-10-26T01:02:50.004Z,4.71
2022-10-26T01:07:52.205Z,4.69
2022-10-26T01:12:57.141Z,4.68
2022-10-26T01:18:11.705Z,4.66
2022-10-26T01:23:34.136Z,4.67
2022-10-26T01:29:04.067Z,4.67
2022-10-26T01:34:23.786Z,4.69
2022-10-26T01:39:38.023Z,4.66
2022-10-26T01:44:44.435Z,4.57
2022-10-26T01:49:50.891Z,4.51
2022-10-26T01:54:52.427Z,4.47
2022-10-26T02:00:12.199Z,4.43
2022-10-26T02:05:44.699Z,4.37
2022-10-26T02:10:49.125Z,4.38
2022-10-26T02:15:56.704Z,4.37
2022-10-26T02:21:05.537Z,4.30
2022-10-26T02:26:10.606Z,4.32
2022-10-26T02:31:15.683Z,4.26
2022-10-26T02:36:23.885Z,4.27
2022-10-26T02:41:28.358Z,4.31
2022-10-26T02:46:30.025Z,4.26
2022-10-26T02:51:40.646Z,4.31
2022-10-26T02:57:00.430Z,4.30
2022-10-26T03:02:03.565Z,4.33
2022-10-26T03:07:05.095Z,4.28
2022-10-26T03:12:06.726Z,4.25
2022-10-26T03:17:08.367Z,4.30
2022-10-26T03:22:09.906Z,4.32
2022-10-26T03:27:11.478Z,4.35
2022-10-26T03:32:13.006Z,4.39
2022-10-26T03:37:14.640Z,4.43
2022-10-26T03:42:16.278Z,4.45
2022-10-26T03:47:17.791Z,4.46
2022-10-26T03:52:19.399Z,4.49
2022-10-26T03:57:20.930Z,4.56
2022-10-26T04:02:22.471Z,4.74
2022-10-26T04:07:24.077Z,4.66
2022-10-26T04:12:25.622Z,4.49
2022-10-26T04:17:27.192Z,4.43
2022-10-26T04:22:28.757Z,4.45
2022-10-26T04:27:30.368Z,4.48
2022-10-26T04:32:31.889Z,4.39
2022-10-26T04:37:34.071Z,4.39
2022-10-26T04:42:46.302Z,4.32
2022-10-26T04:47:48.075Z,4.26
2022-10-26T04:52:51.325Z,4.21
2022-10-26T04:57:55.955Z,4.17
2022-10-26T05:03:01.131Z,4.12
2022-10-26T05:08:03.234Z,4.13
2022-10-26T05:13:04.946Z,4.24
2022-10-26T05:18:06.563Z,4.35
2022-10-26T05:23:11.019Z,4.41
2022-10-26T05:28:13.904Z,4.50
2022-10-26T05:33:15.684Z,4.51
2022-10-26T05:38:18.203Z,4.54
2022-10-26T05:43:21.716Z,4.73
2022-10-26T05:48:23.270Z,4.77
2022-10-26T05:53:24.811Z,4.80
2022-10-26T05:58:26.757Z,4.86
2022-10-26T06:03:43.575Z,4.83
2022-10-26T06:08:45.465Z,4.94
2022-10-26T06:13:47.344Z,5.06
2022-10-26T06:18:58.237Z,5.20
2022-10-26T06:24:40.990Z,5.43
2022-10-26T06:29:50.026Z,5.64
2022-10-26T06:34:57.359Z,5.83
2022-10-26T06:39:59.627Z,5.89
2022-10-26T06:45:01.587Z,5.96
2022-10-26T06:50:25.068Z,6.24
2022-10-26T06:55:28.026Z,6.54
2022-10-26T07:05:34.038Z,7.10
2022-10-26T07:10:38.827Z,7.31
2022-10-26T07:15:41.146Z,7.47
2022-10-26T07:20:42.917Z,7.60
2022-10-26T07:25:44.565Z,7.74
2022-10-26T07:30:46.113Z,7.91
2022-10-26T07:35:47.625Z,8.13
2022-10-26T07:40:50.499Z,8.29
2022-10-26T07:45:52.169Z,8.60
2022-10-26T07:50:53.787Z,9.05
2022-10-26T07:55:57.085Z,9.58
2022-10-26T08:01:07.891Z,10.19
2022-10-26T08:06:10.564Z,10.72
2022-10-26T08:11:12.153Z,11.31
2022-10-26T08:16:13.937Z,12.06
2022-10-26T08:21:21.792Z,12.37
2022-10-26T08:26:31.959Z,12.55
2022-10-26T08:31:33.795Z,13.15
2022-10-26T08:36:35.343Z,13.28
2022-10-26T08:41:41.467Z,13.71
2022-10-26T08:46:46.804Z,14.00
2022-10-26T08:51:51.969Z,14.05
2022-10-26T08:56:58.578Z,14.27
2022-10-26T09:02:02.651Z,14.45
2022-10-26T09:07:41.288Z,14.86
2022-10-26T09:12:58.203Z,15.20
2022-10-26T09:18:17.823Z,15.72
2022-10-26T09:23:47.406Z,16.12
2022-10-26T09:28:49.714Z,16.15
2022-10-26T09:33:53.225Z,16.27
2022-10-26T09:39:21.540Z,16.52
2022-10-26T09:44:38.360Z,16.75
2022-10-26T09:49:48.724Z,16.54
2022-10-26T09:54:50.408Z,16.71
2022-10-26T09:59:52.637Z,16.70
2022-10-26T10:04:54.273Z,16.65
2022-10-26T10:10:16.380Z,16.73
2022-10-26T10:15:21.353Z,16.82
2022-10-26T10:20:32.493Z,17.22
2022-10-26T10:25:36.853Z,17.34
2022-10-26T10:30:38.742Z,17.29
2022-10-26T10:35:49.780Z,17.09
2022-10-26T10:41:03.819Z,16.96
2022-10-26T10:46:05.523Z,16.87
2022-10-26T10:51:12.965Z,16.96
2022-10-26T10:56:26.410Z,17.20
2022-10-26T11:01:38.609Z,17.10
2022-10-26T11:06:42.544Z,17.16
2022-10-26T11:11:51.851Z,16.92
2022-10-26T11:17:17.733Z,16.58
2022-10-26T11:22:24.147Z,16.49
2022-10-26T11:27:45.926Z,16.42
2022-10-26T11:32:57.027Z,16.54
2022-10-26T11:38:08.364Z,16.48
2022-10-26T11:43:32.601Z,16.60
2022-10-26T11:48:54.480Z,16.65
2022-10-26T11:54:02.084Z,17.53
2022-10-26T11:59:04.756Z,17.94
2022-10-26T12:04:07.085Z,18.20
2022-10-26T12:09:16.973Z,18.00
2022-10-26T12:14:33.863Z,17.75
2022-10-26T12:20:28.074Z,17.92
2022-10-26T12:25:29.681Z,18.24
2022-10-26T12:30:33.491Z,18.53
2022-10-26T12:35:36.599Z,18.51
2022-10-26T12:40:41.166Z,18.52
2022-10-26T12:45:44.494Z,18.79
2022-10-26T12:50:46.395Z,18.72
2022-10-26T12:56:02.247Z,18.01
2022-10-26T13:01:04.109Z,17.48
2022-10-26T13:06:09.757Z,17.06
2022-10-26T13:11:32.054Z,16.72
2022-10-26T13:16:34.519Z,16.35
2022-10-26T13:21:47.202Z,16.16
2022-10-26T13:27:08.036Z,16.10
2022-10-26T13:32:09.719Z,16.17
2022-10-26T13:37:23.493Z,16.28
2022-10-26T13:48:01.544Z,16.82
2022-10-26T13:53:29.783Z,17.01
2022-10-26T13:58:33.855Z,17.13
2022-10-26T14:03:35.770Z,17.21
2022-10-26T14:08:40.630Z,17.05
2022-10-26T14:13:42.910Z,16.89
2022-10-26T14:18:45.592Z,16.76
2022-10-26T14:23:51.796Z,16.70
2022-10-26T14:28:56.776Z,16.64
2022-10-26T14:34:01.543Z,16.59
2022-10-26T14:39:12.769Z,16.58
2022-10-26T14:44:19.486Z,16.88
2022-10-26T14:49:27.181Z,17.04
2022-10-26T14:54:30.031Z,17.00
2022-10-26T14:59:32.095Z,16.87
2022-10-26T15:04:41.773Z,16.80
2022-10-26T15:09:45.771Z,16.67
2022-10-26T15:14:48.587Z,16.62
2022-10-26T15:19:52.072Z,16.49
2022-10-26T15:24:59.643Z,16.35
2022-10-26T15:30:28.179Z,16.08
2022-10-26T15:35:31.893Z,15.82
2022-10-26T15:40:33.539Z,15.57
2022-10-26T15:45:37.789Z,15.40
2022-10-26T15:50:41.290Z,15.21
2022-10-26T15:55:43.032Z,14.99
2022-10-26T16:00:44.930Z,14.93
2022-10-26T16:05:46.708Z,14.79
2022-10-26T16:10:48.318Z,14.78
2022-10-26T16:15:49.894Z,14.41
2022-10-26T16:20:51.448Z,14.18
2022-10-26T16:25:53.008Z,13.97
2022-10-26T16:30:59.602Z,13.88
2022-10-26T16:36:02.002Z,13.77
2022-10-26T16:41:12.637Z,13.59
2022-10-26T16:46:16.695Z,13.36
2022-10-26T16:51:19.330Z,13.34
2022-10-26T16:56:23.496Z,13.26
2022-10-26T17:01:25.691Z,13.36
2022-10-26T17:06:27.394Z,13.22
2022-10-26T17:11:28.983Z,13.11
2022-10-26T17:16:30.674Z,13.00
2022-10-26T17:21:35.935Z,12.90
2022-10-26T17:26:37.696Z,12.39
2022-10-26T17:31:40.258Z,12.01
2022-10-26T17:36:42.027Z,11.70
2022-10-26T17:41:43.677Z,11.57
2022-10-26T17:46:45.528Z,11.55
2022-10-26T17:51:47.129Z,11.60
2022-10-26T17:56:48.711Z,11.53
2022-10-26T18:01:50.381Z,11.22
2022-10-26T18:06:52.166Z,11.07
2022-10-26T18:11:55.828Z,10.98
2022-10-26T18:16:57.769Z,11.08
2022-10-26T18:22:00.504Z,11.04
2022-10-26T18:27:02.133Z,11.17
2022-10-26T18:32:03.956Z,11.16
2022-10-26T18:37:05.523Z,11.28
2022-10-26T18:42:07.126Z,11.18
2022-10-26T18:47:08.672Z,11.06
2022-10-26T18:52:10.359Z,10.85
2022-10-26T18:57:11.975Z,10.61
2022-10-26T19:02:14.691Z,10.38
2022-10-26T19:07:16.362Z,10.30
2022-10-26T19:12:17.940Z,10.18
2022-10-26T19:17:19.954Z,9.98
2022-10-26T19:22:21.646Z,9.81
2022-10-26T19:27:23.231Z,9.67
2022-10-26T19:32:28.333Z,9.57
2022-10-26T19:37:30.610Z,9.43
2022-10-26T19:42:32.244Z,9.31
2022-10-26T19:47:33.819Z,9.31
2022-10-26T19:52:36.525Z,9.27
2022-10-26T19:57:38.195Z,9.24
2022-10-26T20:02:39.920Z,9.18
2022-10-26T20:07:41.527Z,9.26
2022-10-26T20:12:43.085Z,9.18
2022-10-26T20:17:44.702Z,9.00
2022-10-26T20:22:46.259Z,8.96
2022-10-26T20:27:48.332Z,8.89
2022-10-26T20:32:50.180Z,8.86
2022-10-26T20:37:52.987Z,8.86
2022-10-26T20:42:55.694Z,8.73
2022-10-26T20:47:58.803Z,8.65
2022-10-26T20:53:11.573Z,8.71
2022-10-26T20:58:32.043Z,8.68
2022-10-26T21:03:33.692Z,8.79
2022-10-26T21:08:35.237Z,8.85
2022-10-26T21:13:36.924Z,8.69
2022-10-26T21:18:38.940Z,8.57
2022-10-26T21:23:41.293Z,8.51
2022-10-26T21:28:45.906Z,8.42
2022-10-26T21:33:48.170Z,8.38
2022-10-26T21:38:49.812Z,8.33
2022-10-26T21:44:03.193Z,8.34
2022-10-26T21:49:10.668Z,8.37
2022-10-26T21:54:12.234Z,8.31
2022-10-26T21:59:13.817Z,8.20
2022-10-26T22:04:15.381Z,8.20
2022-10-26T22:09:17.325Z,8.22
2022-10-26T22:14:19.221Z,8.14
2022-10-26T22:19:20.898Z,8.08
2022-10-26T22:24:22.508Z,8.01
2022-10-26T22:29:24.070Z,7.97
2022-10-26T22:34:25.706Z,7.97
2022-10-26T22:39:27.260Z,8.01
2022-10-26T22:44:28.913Z,8.03
2022-10-26T22:49:30.529Z,8.01
2022-10-26T22:54:32.125Z,8.00
2022-10-26T22:59:33.695Z,7.99
2022-10-26T23:04:35.285Z,7.95
2022-10-26T23:09:36.862Z,7.95
2022-10-26T23:14:38.426Z,7.91
2022-10-26T23:19:40.165Z,7.94
2022-10-26T23:24:41.928Z,7.99
2022-10-26T23:34:46.430Z,8.04
2022-10-26T23:39:48.167Z,8.03
2022-10-26T23:44:49.917Z,8.02
2022-10-26T23:49:51.734Z,8.13
2022-10-26T23:54:53.502Z,8.39
2022-10-26T23:59:55.255Z,8.37
